sensor_id;sensor_type;location;lat;lon;timestamp;temperature;humidity
20985;DHT22;10651;47.552;7.606;2022-08-01T00:04:12;24.20;99.90
20985;DHT22;10651;47.552;7.606;2022-08-01T00:10:34;23.90;99.90
20985;DHT22;10651;47.552;7.606;2022-08-01T00:13:01;23.80;99.90
20985;DHT22;10651;47.552;7.606;2022-08-01T00:41:50;23.70;99.90
20985;DHT22;10651;47.552;7.606;2022-08-01T00:50:00;23.70;99.90
20985;DHT22;10651;47.552;7.606;2022-08-01T00:52:27;23.60;99.90
20985;DHT22;10651;47.552;7.606;2022-08-01T00:54:52;23.60;99.90
20985;DHT22;10651;47.552;7.606;2022-08-01T00:57:18;23.50;99.90
20985;DHT22;10651;47.552;7.606;2022-08-01T00:59:43;23.50;99.90
20985;DHT22;10651;47.552;7.606;2022-08-01T01:02:09;23.50;99.90
20985;DHT22;10651;47.552;7.606;2022-08-01T01:04:35;23.40;99.90
20985;DHT22;10651;47.552;7.606;2022-08-01T01:17:32;23.30;99.90
20985;DHT22;10651;47.552;7.606;2022-08-01T01:19:59;23.30;99.90
20985;DHT22;10651;47.552;7.606;2022-08-01T01:25:18;23.20;99.90
20985;DHT22;10651;47.552;7.606;2022-08-01T01:30:40;23.10;99.90
20985;DHT22;10651;47.552;7.606;2022-08-01T01:33:08;23.10;99.90
20985;DHT22;10651;47.552;7.606;2022-08-01T01:35:40;23.20;99.90
20985;DHT22;10651;47.552;7.606;2022-08-01T01:38:28;23.20;99.90
20985;DHT22;10651;47.552;7.606;2022-08-01T01:40:55;23.10;99.90
20985;DHT22;10651;47.552;7.606;2022-08-01T01:43:23;23.10;99.90
20985;DHT22;10651;47.552;7.606;2022-08-01T01:45:50;23.10;99.90
20985;DHT22;10651;47.552;7.606;2022-08-01T01:48:18;23.10;99.90
20985;DHT22;10651;47.552;7.606;2022-08-01T01:50:49;23.10;99.90
20985;DHT22;10651;47.552;7.606;2022-08-01T01:53:17;23.00;99.90
20985;DHT22;10651;47.552;7.606;2022-08-01T01:55:47;22.90;99.90
20985;DHT22;10651;47.552;7.606;2022-08-01T01:58:15;22.80;99.90
20985;DHT22;10651;47.552;7.606;2022-08-01T02:00:42;22.70;99.90
20985;DHT22;10651;47.552;7.606;2022-08-01T02:03:11;22.70;99.90
20985;DHT22;10651;47.552;7.606;2022-08-01T02:05:38;22.60;99.90
20985;DHT22;10651;47.552;7.606;2022-08-01T02:08:05;22.50;99.90
20985;DHT22;10651;47.552;7.606;2022-08-01T02:10:32;22.50;99.90
20985;DHT22;10651;47.552;7.606;2022-08-01T02:13:02;22.40;99.90
20985;DHT22;10651;47.552;7.606;2022-08-01T02:15:30;22.40;99.90
20985;DHT22;10651;47.552;7.606;2022-08-01T02:17:57;22.40;99.90
20985;DHT22;10651;47.552;7.606;2022-08-01T02:20:28;22.40;99.90
20985;DHT22;10651;47.552;7.606;2022-08-01T02:23:01;22.40;99.90
20985;DHT22;10651;47.552;7.606;2022-08-01T02:25:39;22.40;99.90
20985;DHT22;10651;47.552;7.606;2022-08-01T02:28:10;22.40;99.90
20985;DHT22;10651;47.552;7.606;2022-08-01T02:30:39;22.30;99.90
20985;DHT22;10651;47.552;7.606;2022-08-01T02:33:14;22.30;99.90
20985;DHT22;10651;47.552;7.606;2022-08-01T02:35:41;22.20;99.90
20985;DHT22;10651;47.552;7.606;2022-08-01T02:38:09;22.20;99.90
20985;DHT22;10651;47.552;7.606;2022-08-01T02:40:38;22.20;99.90
20985;DHT22;10651;47.552;7.606;2022-08-01T02:43:07;22.10;99.90
20985;DHT22;10651;47.552;7.606;2022-08-01T02:45:36;22.10;99.90
20985;DHT22;10651;47.552;7.606;2022-08-01T02:48:10;22.10;99.90
20985;DHT22;10651;47.552;7.606;2022-08-01T02:50:38;22.10;99.90
20985;DHT22;10651;47.552;7.606;2022-08-01T02:53:05;22.10;99.90
20985;DHT22;10651;47.552;7.606;2022-08-01T02:55:32;22.00;99.90
20985;DHT22;10651;47.552;7.606;2022-08-01T02:58:00;21.90;99.90
20985;DHT22;10651;47.552;7.606;2022-08-01T03:00:28;21.80;99.90
20985;DHT22;10651;47.552;7.606;2022-08-01T03:02:56;21.80;99.90
20985;DHT22;10651;47.552;7.606;2022-08-01T03:05:24;21.80;99.90
20985;DHT22;10651;47.552;7.606;2022-08-01T03:07:52;21.70;99.90
20985;DHT22;10651;47.552;7.606;2022-08-01T03:10:18;21.60;99.90
20985;DHT22;10651;47.552;7.606;2022-08-01T03:12:45;21.50;99.90
20985;DHT22;10651;47.552;7.606;2022-08-01T03:15:12;21.50;99.90
20985;DHT22;10651;47.552;7.606;2022-08-01T03:17:40;21.50;99.90
20985;DHT22;10651;47.552;7.606;2022-08-01T03:20:07;21.50;99.90
20985;DHT22;10651;47.552;7.606;2022-08-01T03:22:34;21.50;99.90
20985;DHT22;10651;47.552;7.606;2022-08-01T03:25:01;21.50;99.90
20985;DHT22;10651;47.552;7.606;2022-08-01T03:27:27;21.50;99.90
20985;DHT22;10651;47.552;7.606;2022-08-01T03:29:55;21.50;99.90
20985;DHT22;10651;47.552;7.606;2022-08-01T03:32:22;21.50;99.90
20985;DHT22;10651;47.552;7.606;2022-08-01T03:34:48;21.60;99.90
20985;DHT22;10651;47.552;7.606;2022-08-01T03:37:34;21.50;99.90
20985;DHT22;10651;47.552;7.606;2022-08-01T03:40:09;21.40;99.90
20985;DHT22;10651;47.552;7.606;2022-08-01T03:42:39;21.40;99.90
20985;DHT22;10651;47.552;7.606;2022-08-01T03:45:08;21.40;99.90
20985;DHT22;10651;47.552;7.606;2022-08-01T03:47:36;21.30;99.90
20985;DHT22;10651;47.552;7.606;2022-08-01T03:50:04;21.40;99.90
20985;DHT22;10651;47.552;7.606;2022-08-01T03:52:32;21.30;99.90
20985;DHT22;10651;47.552;7.606;2022-08-01T03:55:03;21.30;99.90
20985;DHT22;10651;47.552;7.606;2022-08-01T03:57:31;21.20;99.90
20985;DHT22;10651;47.552;7.606;2022-08-01T03:59:58;21.20;99.90
20985;DHT22;10651;47.552;7.606;2022-08-01T04:02:28;21.10;99.90
20985;DHT22;10651;47.552;7.606;2022-08-01T04:04:54;21.20;99.90
20985;DHT22;10651;47.552;7.606;2022-08-01T04:07:27;21.10;99.90
20985;DHT22;10651;47.552;7.606;2022-08-01T04:09:53;21.00;99.90
20985;DHT22;10651;47.552;7.606;2022-08-01T04:12:19;21.00;99.90
20985;DHT22;10651;47.552;7.606;2022-08-01T04:14:45;21.00;99.90
20985;DHT22;10651;47.552;7.606;2022-08-01T04:17:10;21.00;99.90
20985;DHT22;10651;47.552;7.606;2022-08-01T04:19:36;21.00;99.90
20985;DHT22;10651;47.552;7.606;2022-08-01T04:22:03;21.00;99.90
20985;DHT22;10651;47.552;7.606;2022-08-01T04:24:29;21.00;99.90
20985;DHT22;10651;47.552;7.606;2022-08-01T04:26:57;21.00;99.90
20985;DHT22;10651;47.552;7.606;2022-08-01T04:29:24;20.90;99.90
20985;DHT22;10651;47.552;7.606;2022-08-01T04:31:52;20.90;99.90
20985;DHT22;10651;47.552;7.606;2022-08-01T04:34:22;20.90;99.90
20985;DHT22;10651;47.552;7.606;2022-08-01T04:36:48;20.90;99.90
20985;DHT22;10651;47.552;7.606;2022-08-01T04:39:16;21.00;99.90
20985;DHT22;10651;47.552;7.606;2022-08-01T04:41:44;21.00;99.90
20985;DHT22;10651;47.552;7.606;2022-08-01T04:44:12;21.00;99.90
20985;DHT22;10651;47.552;7.606;2022-08-01T04:46:39;21.00;99.90
20985;DHT22;10651;47.552;7.606;2022-08-01T04:49:07;21.00;99.90
20985;DHT22;10651;47.552;7.606;2022-08-01T04:51:34;20.90;99.90
20985;DHT22;10651;47.552;7.606;2022-08-01T04:54:00;20.80;99.90
20985;DHT22;10651;47.552;7.606;2022-08-01T04:56:26;20.90;99.90
20985;DHT22;10651;47.552;7.606;2022-08-01T04:58:52;20.90;99.90
20985;DHT22;10651;47.552;7.606;2022-08-01T05:01:38;20.90;99.90
20985;DHT22;10651;47.552;7.606;2022-08-01T05:04:03;20.90;99.90
20985;DHT22;10651;47.552;7.606;2022-08-01T05:06:29;20.90;99.90
20985;DHT22;10651;47.552;7.606;2022-08-01T05:08:55;20.90;99.90
20985;DHT22;10651;47.552;7.606;2022-08-01T05:11:21;20.80;99.90
20985;DHT22;10651;47.552;7.606;2022-08-01T05:13:48;20.80;99.90
20985;DHT22;10651;47.552;7.606;2022-08-01T05:16:14;20.80;99.90
20985;DHT22;10651;47.552;7.606;2022-08-01T05:18:39;20.70;99.90
20985;DHT22;10651;47.552;7.606;2022-08-01T05:21:05;20.70;99.90
20985;DHT22;10651;47.552;7.606;2022-08-01T05:23:30;20.70;99.90
20985;DHT22;10651;47.552;7.606;2022-08-01T05:25:56;20.60;99.90
20985;DHT22;10651;47.552;7.606;2022-08-01T05:28:21;20.60;99.90
20985;DHT22;10651;47.552;7.606;2022-08-01T05:30:47;20.70;99.90
20985;DHT22;10651;47.552;7.606;2022-08-01T05:33:13;20.70;99.90
20985;DHT22;10651;47.552;7.606;2022-08-01T05:35:38;20.60;99.90
20985;DHT22;10651;47.552;7.606;2022-08-01T05:38:04;20.60;99.90
20985;DHT22;10651;47.552;7.606;2022-08-01T05:40:29;20.60;99.90
20985;DHT22;10651;47.552;7.606;2022-08-01T05:42:55;20.60;99.90
20985;DHT22;10651;47.552;7.606;2022-08-01T05:45:21;20.60;99.90
20985;DHT22;10651;47.552;7.606;2022-08-01T05:47:47;20.70;99.90
20985;DHT22;10651;47.552;7.606;2022-08-01T05:50:12;20.70;99.90
20985;DHT22;10651;47.552;7.606;2022-08-01T05:52:38;20.70;99.90
20985;DHT22;10651;47.552;7.606;2022-08-01T05:55:04;20.60;99.90
20985;DHT22;10651;47.552;7.606;2022-08-01T05:57:30;20.70;99.90
20985;DHT22;10651;47.552;7.606;2022-08-01T05:59:56;20.60;99.90
20985;DHT22;10651;47.552;7.606;2022-08-01T06:02:21;20.60;99.90
20985;DHT22;10651;47.552;7.606;2022-08-01T06:04:47;20.70;99.90
20985;DHT22;10651;47.552;7.606;2022-08-01T06:07:13;20.80;99.90
20985;DHT22;10651;47.552;7.606;2022-08-01T06:09:38;20.80;99.90
20985;DHT22;10651;47.552;7.606;2022-08-01T06:12:04;20.90;99.90
20985;DHT22;10651;47.552;7.606;2022-08-01T06:14:30;21.00;99.90
20985;DHT22;10651;47.552;7.606;2022-08-01T06:16:56;21.00;99.90
20985;DHT22;10651;47.552;7.606;2022-08-01T06:19:21;21.10;99.90
20985;DHT22;10651;47.552;7.606;2022-08-01T06:21:47;21.10;99.90
20985;DHT22;10651;47.552;7.606;2022-08-01T06:24:13;21.20;99.90
20985;DHT22;10651;47.552;7.606;2022-08-01T06:26:38;21.20;99.90
20985;DHT22;10651;47.552;7.606;2022-08-01T06:29:04;21.20;99.90
20985;DHT22;10651;47.552;7.606;2022-08-01T06:31:30;21.30;99.90
20985;DHT22;10651;47.552;7.606;2022-08-01T06:33:56;21.50;99.90
20985;DHT22;10651;47.552;7.606;2022-08-01T06:36:22;21.50;99.90
20985;DHT22;10651;47.552;7.606;2022-08-01T06:38:48;21.60;99.90
20985;DHT22;10651;47.552;7.606;2022-08-01T06:41:13;21.70;99.90
20985;DHT22;10651;47.552;7.606;2022-08-01T06:43:39;21.70;99.90
20985;DHT22;10651;47.552;7.606;2022-08-01T06:46:05;21.80;99.90
20985;DHT22;10651;47.552;7.606;2022-08-01T06:48:30;21.90;99.90
20985;DHT22;10651;47.552;7.606;2022-08-01T06:50:56;21.90;99.90
20985;DHT22;10651;47.552;7.606;2022-08-01T06:53:35;22.00;99.90
20985;DHT22;10651;47.552;7.606;2022-08-01T06:56:01;22.00;99.90
20985;DHT22;10651;47.552;7.606;2022-08-01T06:58:27;22.00;99.90
20985;DHT22;10651;47.552;7.606;2022-08-01T07:00:52;22.10;99.90
20985;DHT22;10651;47.552;7.606;2022-08-01T07:03:18;22.20;99.90
20985;DHT22;10651;47.552;7.606;2022-08-01T07:05:43;22.30;99.90
20985;DHT22;10651;47.552;7.606;2022-08-01T07:08:09;22.30;99.90
20985;DHT22;10651;47.552;7.606;2022-08-01T07:10:35;22.30;99.90
20985;DHT22;10651;47.552;7.606;2022-08-01T07:13:00;22.40;99.90
20985;DHT22;10651;47.552;7.606;2022-08-01T07:15:26;22.50;99.90
20985;DHT22;10651;47.552;7.606;2022-08-01T07:17:52;22.60;99.90
20985;DHT22;10651;47.552;7.606;2022-08-01T07:20:19;22.60;99.90
20985;DHT22;10651;47.552;7.606;2022-08-01T07:22:45;22.70;99.90
20985;DHT22;10651;47.552;7.606;2022-08-01T07:25:10;22.70;99.90
20985;DHT22;10651;47.552;7.606;2022-08-01T07:27:36;22.80;99.90
20985;DHT22;10651;47.552;7.606;2022-08-01T07:30:03;22.90;99.90
20985;DHT22;10651;47.552;7.606;2022-08-01T07:32:29;23.00;99.90
20985;DHT22;10651;47.552;7.606;2022-08-01T07:34:56;23.00;99.90
20985;DHT22;10651;47.552;7.606;2022-08-01T07:37:22;23.10;99.90
20985;DHT22;10651;47.552;7.606;2022-08-01T07:39:49;23.20;99.90
20985;DHT22;10651;47.552;7.606;2022-08-01T07:42:14;23.20;99.90
20985;DHT22;10651;47.552;7.606;2022-08-01T07:44:40;23.30;99.90
20985;DHT22;10651;47.552;7.606;2022-08-01T07:47:06;23.40;99.90
20985;DHT22;10651;47.552;7.606;2022-08-01T07:49:32;23.40;99.90
20985;DHT22;10651;47.552;7.606;2022-08-01T07:51:58;23.50;99.90
20985;DHT22;10651;47.552;7.606;2022-08-01T07:54:23;23.50;99.90
20985;DHT22;10651;47.552;7.606;2022-08-01T07:56:50;23.60;99.90
20985;DHT22;10651;47.552;7.606;2022-08-01T07:59:16;23.80;99.90
20985;DHT22;10651;47.552;7.606;2022-08-01T08:01:42;23.80;99.90
20985;DHT22;10651;47.552;7.606;2022-08-01T08:04:07;23.90;99.90
20985;DHT22;10651;47.552;7.606;2022-08-01T08:06:33;23.80;99.90
20985;DHT22;10651;47.552;7.606;2022-08-01T08:08:59;23.90;99.90
20985;DHT22;10651;47.552;7.606;2022-08-01T08:11:24;23.90;99.90
20985;DHT22;10651;47.552;7.606;2022-08-01T08:13:50;24.10;99.90
20985;DHT22;10651;47.552;7.606;2022-08-01T08:16:15;24.20;99.90
20985;DHT22;10651;47.552;7.606;2022-08-01T08:18:41;24.30;99.90
20985;DHT22;10651;47.552;7.606;2022-08-01T08:21:07;24.50;99.90
20985;DHT22;10651;47.552;7.606;2022-08-01T08:23:32;24.70;99.90
20985;DHT22;10651;47.552;7.606;2022-08-01T08:26:16;24.90;99.90
20985;DHT22;10651;47.552;7.606;2022-08-01T08:28:42;25.10;99.90
20985;DHT22;10651;47.552;7.606;2022-08-01T08:31:08;25.10;99.90
20985;DHT22;10651;47.552;7.606;2022-08-01T08:33:33;25.20;99.90
20985;DHT22;10651;47.552;7.606;2022-08-01T08:35:59;25.40;99.90
20985;DHT22;10651;47.552;7.606;2022-08-01T08:38:24;25.40;99.90
20985;DHT22;10651;47.552;7.606;2022-08-01T08:40:53;25.50;99.90
20985;DHT22;10651;47.552;7.606;2022-08-01T08:43:18;25.60;99.90
20985;DHT22;10651;47.552;7.606;2022-08-01T08:45:45;25.70;99.90
20985;DHT22;10651;47.552;7.606;2022-08-01T08:48:12;25.80;99.90
20985;DHT22;10651;47.552;7.606;2022-08-01T08:50:38;25.80;99.90
20985;DHT22;10651;47.552;7.606;2022-08-01T08:53:05;25.90;99.90
20985;DHT22;10651;47.552;7.606;2022-08-01T08:55:30;25.90;99.90
20985;DHT22;10651;47.552;7.606;2022-08-01T08:57:56;26.00;99.90
20985;DHT22;10651;47.552;7.606;2022-08-01T09:00:23;26.30;99.90
20985;DHT22;10651;47.552;7.606;2022-08-01T09:02:48;26.40;99.90
20985;DHT22;10651;47.552;7.606;2022-08-01T09:05:14;26.50;99.90
20985;DHT22;10651;47.552;7.606;2022-08-01T09:07:40;26.50;99.90
20985;DHT22;10651;47.552;7.606;2022-08-01T09:10:07;26.60;99.90
20985;DHT22;10651;47.552;7.606;2022-08-01T09:12:32;26.70;99.90
20985;DHT22;10651;47.552;7.606;2022-08-01T09:14:58;26.80;99.90
20985;DHT22;10651;47.552;7.606;2022-08-01T09:17:24;27.00;99.90
20985;DHT22;10651;47.552;7.606;2022-08-01T09:19:52;27.20;99.90
20985;DHT22;10651;47.552;7.606;2022-08-01T09:22:20;27.20;99.90
20985;DHT22;10651;47.552;7.606;2022-08-01T09:25:03;27.30;99.90
20985;DHT22;10651;47.552;7.606;2022-08-01T09:27:29;27.50;99.90
20985;DHT22;10651;47.552;7.606;2022-08-01T09:30:13;27.50;99.90
20985;DHT22;10651;47.552;7.606;2022-08-01T09:33:00;27.60;99.90
20985;DHT22;10651;47.552;7.606;2022-08-01T09:35:33;27.70;99.90
20985;DHT22;10651;47.552;7.606;2022-08-01T09:38:20;27.90;99.90
20985;DHT22;10651;47.552;7.606;2022-08-01T09:43:11;27.90;99.90
20985;DHT22;10651;47.552;7.606;2022-08-01T09:45:37;27.90;99.90
20985;DHT22;10651;47.552;7.606;2022-08-01T09:48:12;28.10;99.90
20985;DHT22;10651;47.552;7.606;2022-08-01T09:50:57;28.10;99.90
20985;DHT22;10651;47.552;7.606;2022-08-01T09:53:23;28.20;99.90
20985;DHT22;10651;47.552;7.606;2022-08-01T09:55:49;28.30;99.90
20985;DHT22;10651;47.552;7.606;2022-08-01T09:58:18;28.50;99.90
20985;DHT22;10651;47.552;7.606;2022-08-01T10:00:58;28.50;99.90
20985;DHT22;10651;47.552;7.606;2022-08-01T10:03:26;28.40;99.90
20985;DHT22;10651;47.552;7.606;2022-08-01T10:05:52;28.60;99.90
20985;DHT22;10651;47.552;7.606;2022-08-01T10:08:22;28.60;99.90
20985;DHT22;10651;47.552;7.606;2022-08-01T10:11:10;28.70;99.90
20985;DHT22;10651;47.552;7.606;2022-08-01T10:13:36;28.80;99.90
20985;DHT22;10651;47.552;7.606;2022-08-01T10:16:02;29.00;99.90
20985;DHT22;10651;47.552;7.606;2022-08-01T10:18:31;29.00;99.90
20985;DHT22;10651;47.552;7.606;2022-08-01T10:21:02;29.10;99.90
20985;DHT22;10651;47.552;7.606;2022-08-01T10:23:34;29.20;99.90
20985;DHT22;10651;47.552;7.606;2022-08-01T10:26:00;29.30;99.90
20985;DHT22;10651;47.552;7.606;2022-08-01T10:28:30;29.30;99.90
20985;DHT22;10651;47.552;7.606;2022-08-01T10:30:57;29.30;99.90
20985;DHT22;10651;47.552;7.606;2022-08-01T10:33:23;29.40;99.90
20985;DHT22;10651;47.552;7.606;2022-08-01T10:35:50;29.40;99.90
20985;DHT22;10651;47.552;7.606;2022-08-01T10:38:16;29.40;99.90
20985;DHT22;10651;47.552;7.606;2022-08-01T10:40:43;29.40;99.90
20985;DHT22;10651;47.552;7.606;2022-08-01T10:43:12;29.60;99.90
20985;DHT22;10651;47.552;7.606;2022-08-01T10:45:41;29.40;99.90
20985;DHT22;10651;47.552;7.606;2022-08-01T10:48:45;29.60;99.90
20985;DHT22;10651;47.552;7.606;2022-08-01T10:51:12;29.80;99.90
20985;DHT22;10651;47.552;7.606;2022-08-01T10:53:47;29.90;99.90
20985;DHT22;10651;47.552;7.606;2022-08-01T10:56:13;30.10;99.90
20985;DHT22;10651;47.552;7.606;2022-08-01T10:58:41;29.90;99.90
20985;DHT22;10651;47.552;7.606;2022-08-01T11:01:24;30.00;99.90
20985;DHT22;10651;47.552;7.606;2022-08-01T11:04:09;30.00;99.90
20985;DHT22;10651;47.552;7.606;2022-08-01T11:09:15;30.10;99.60
20985;DHT22;10651;47.552;7.606;2022-08-01T11:12:10;30.20;99.90
20985;DHT22;10651;47.552;7.606;2022-08-01T11:17:32;30.50;99.60
20985;DHT22;10651;47.552;7.606;2022-08-01T11:20:12;30.50;99.90
20985;DHT22;10651;47.552;7.606;2022-08-01T11:30:45;30.90;99.80
20985;DHT22;10651;47.552;7.606;2022-08-01T11:33:13;31.00;98.40
20985;DHT22;10651;47.552;7.606;2022-08-01T11:38:49;31.00;98.20
20985;DHT22;10651;47.552;7.606;2022-08-01T11:41:26;30.90;97.90
20985;DHT22;10651;47.552;7.606;2022-08-01T11:52:06;31.30;97.20
20985;DHT22;10651;47.552;7.606;2022-08-01T11:54:34;31.30;94.70
20985;DHT22;10651;47.552;7.606;2022-08-01T11:57:02;31.20;96.40
20985;DHT22;10651;47.552;7.606;2022-08-01T11:59:28;31.50;96.70
20985;DHT22;10651;47.552;7.606;2022-08-01T12:02:00;31.80;96.50
20985;DHT22;10651;47.552;7.606;2022-08-01T12:05:17;32.10;96.30
20985;DHT22;10651;47.552;7.606;2022-08-01T12:07:37;31.90;95.70
20985;DHT22;10651;47.552;7.606;2022-08-01T12:10:21;31.60;95.30
20985;DHT22;10651;47.552;7.606;2022-08-01T12:12:49;31.90;95.00
20985;DHT22;10651;47.552;7.606;2022-08-01T12:15:15;32.20;95.20
20985;DHT22;10651;47.552;7.606;2022-08-01T12:20:18;32.40;94.20
20985;DHT22;10651;47.552;7.606;2022-08-01T12:22:44;32.20;91.50
20985;DHT22;10651;47.552;7.606;2022-08-01T12:27:37;32.10;90.20
20985;DHT22;10651;47.552;7.606;2022-08-01T12:30:07;32.00;90.80
20985;DHT22;10651;47.552;7.606;2022-08-01T12:32:35;32.00;89.50
20985;DHT22;10651;47.552;7.606;2022-08-01T12:35:08;32.20;89.50
20985;DHT22;10651;47.552;7.606;2022-08-01T12:37:39;32.20;88.80
20985;DHT22;10651;47.552;7.606;2022-08-01T12:40:25;32.20;88.90
20985;DHT22;10651;47.552;7.606;2022-08-01T12:42:55;32.40;90.60
20985;DHT22;10651;47.552;7.606;2022-08-01T12:45:37;32.20;85.80
20985;DHT22;10651;47.552;7.606;2022-08-01T12:48:08;32.20;89.30
20985;DHT22;10651;47.552;7.606;2022-08-01T12:50:37;32.40;86.60
20985;DHT22;10651;47.552;7.606;2022-08-01T12:53:04;32.20;85.90
20985;DHT22;10651;47.552;7.606;2022-08-01T12:55:31;32.50;87.00
20985;DHT22;10651;47.552;7.606;2022-08-01T12:58:05;32.70;87.90
20985;DHT22;10651;47.552;7.606;2022-08-01T13:00:32;32.60;87.00
20985;DHT22;10651;47.552;7.606;2022-08-01T13:05:27;32.40;89.30
20985;DHT22;10651;47.552;7.606;2022-08-01T13:07:53;32.40;87.90
20985;DHT22;10651;47.552;7.606;2022-08-01T13:10:28;32.70;86.60
20985;DHT22;10651;47.552;7.606;2022-08-01T13:12:56;32.90;86.80
20985;DHT22;10651;47.552;7.606;2022-08-01T13:15:30;32.90;85.40
20985;DHT22;10651;47.552;7.606;2022-08-01T13:17:59;32.60;85.40
20985;DHT22;10651;47.552;7.606;2022-08-01T13:20:34;32.80;88.20
20985;DHT22;10651;47.552;7.606;2022-08-01T13:23:14;32.90;87.60
20985;DHT22;10651;47.552;7.606;2022-08-01T13:25:52;32.80;87.40
20985;DHT22;10651;47.552;7.606;2022-08-01T13:28:20;32.90;84.40
20985;DHT22;10651;47.552;7.606;2022-08-01T13:33:39;33.20;85.60
20985;DHT22;10651;47.552;7.606;2022-08-01T13:36:06;33.50;84.40
20985;DHT22;10651;47.552;7.606;2022-08-01T13:38:32;33.90;86.00
20985;DHT22;10651;47.552;7.606;2022-08-01T13:41:16;33.60;84.40
20985;DHT22;10651;47.552;7.606;2022-08-01T13:43:42;33.60;86.60
20985;DHT22;10651;47.552;7.606;2022-08-01T13:46:07;33.50;85.50
20985;DHT22;10651;47.552;7.606;2022-08-01T13:48:33;33.10;83.30
20985;DHT22;10651;47.552;7.606;2022-08-01T13:50:59;33.10;83.90
20985;DHT22;10651;47.552;7.606;2022-08-01T13:53:25;33.40;85.50
20985;DHT22;10651;47.552;7.606;2022-08-01T13:55:51;33.20;85.20
20985;DHT22;10651;47.552;7.606;2022-08-01T13:58:17;33.20;87.60
20985;DHT22;10651;47.552;7.606;2022-08-01T14:00:42;33.10;83.60
20985;DHT22;10651;47.552;7.606;2022-08-01T14:03:08;32.90;84.90
20985;DHT22;10651;47.552;7.606;2022-08-01T14:05:36;33.10;85.90
20985;DHT22;10651;47.552;7.606;2022-08-01T14:08:01;33.00;83.00
20985;DHT22;10651;47.552;7.606;2022-08-01T14:10:27;32.10;82.70
20985;DHT22;10651;47.552;7.606;2022-08-01T14:12:55;31.90;84.10
20985;DHT22;10651;47.552;7.606;2022-08-01T14:15:20;32.00;84.80
20985;DHT22;10651;47.552;7.606;2022-08-01T14:17:46;32.30;84.80
20985;DHT22;10651;47.552;7.606;2022-08-01T14:20:11;32.50;83.50
20985;DHT22;10651;47.552;7.606;2022-08-01T14:22:37;32.90;86.20
20985;DHT22;10651;47.552;7.606;2022-08-01T14:25:05;32.60;83.10
20985;DHT22;10651;47.552;7.606;2022-08-01T14:27:30;32.50;85.70
20985;DHT22;10651;47.552;7.606;2022-08-01T14:29:57;32.50;87.30
20985;DHT22;10651;47.552;7.606;2022-08-01T14:32:22;32.40;86.50
20985;DHT22;10651;47.552;7.606;2022-08-01T14:34:48;32.60;86.20
20985;DHT22;10651;47.552;7.606;2022-08-01T14:37:14;32.40;87.40
20985;DHT22;10651;47.552;7.606;2022-08-01T14:39:40;32.60;84.50
20985;DHT22;10651;47.552;7.606;2022-08-01T14:42:05;32.90;84.30
20985;DHT22;10651;47.552;7.606;2022-08-01T14:44:31;32.90;83.90
20985;DHT22;10651;47.552;7.606;2022-08-01T14:46:57;32.60;84.90
20985;DHT22;10651;47.552;7.606;2022-08-01T14:49:23;32.30;85.50
20985;DHT22;10651;47.552;7.606;2022-08-01T14:51:48;32.00;86.70
20985;DHT22;10651;47.552;7.606;2022-08-01T14:54:14;32.00;87.70
20985;DHT22;10651;47.552;7.606;2022-08-01T14:56:40;32.10;87.90
20985;DHT22;10651;47.552;7.606;2022-08-01T14:59:06;32.00;87.20
20985;DHT22;10651;47.552;7.606;2022-08-01T15:01:31;31.90;87.90
20985;DHT22;10651;47.552;7.606;2022-08-01T15:03:57;31.80;87.00
20985;DHT22;10651;47.552;7.606;2022-08-01T15:06:22;31.70;87.20
20985;DHT22;10651;47.552;7.606;2022-08-01T15:08:48;31.20;88.10
20985;DHT22;10651;47.552;7.606;2022-08-01T15:11:14;31.20;87.80
20985;DHT22;10651;47.552;7.606;2022-08-01T15:13:41;31.00;90.00
20985;DHT22;10651;47.552;7.606;2022-08-01T15:16:07;31.20;89.90
20985;DHT22;10651;47.552;7.606;2022-08-01T15:18:33;31.40;90.00
20985;DHT22;10651;47.552;7.606;2022-08-01T15:20:58;31.50;89.70
20985;DHT22;10651;47.552;7.606;2022-08-01T15:23:24;31.30;89.30
20985;DHT22;10651;47.552;7.606;2022-08-01T15:25:49;31.10;90.00
20985;DHT22;10651;47.552;7.606;2022-08-01T15:28:15;31.10;90.00
20985;DHT22;10651;47.552;7.606;2022-08-01T15:30:41;31.30;90.00
20985;DHT22;10651;47.552;7.606;2022-08-01T15:33:07;31.00;88.80
20985;DHT22;10651;47.552;7.606;2022-08-01T15:35:33;30.90;90.10
20985;DHT22;10651;47.552;7.606;2022-08-01T15:37:59;30.90;90.10
20985;DHT22;10651;47.552;7.606;2022-08-01T15:40:25;30.90;90.20
20985;DHT22;10651;47.552;7.606;2022-08-01T15:42:51;31.10;90.00
20985;DHT22;10651;47.552;7.606;2022-08-01T15:45:17;31.30;90.30
20985;DHT22;10651;47.552;7.606;2022-08-01T15:47:44;31.30;89.50
20985;DHT22;10651;47.552;7.606;2022-08-01T15:50:10;31.50;87.80
20985;DHT22;10651;47.552;7.606;2022-08-01T15:52:35;31.30;88.00
20985;DHT22;10651;47.552;7.606;2022-08-01T15:55:02;31.10;88.30
20985;DHT22;10651;47.552;7.606;2022-08-01T15:57:27;30.70;88.60
20985;DHT22;10651;47.552;7.606;2022-08-01T15:59:53;30.50;90.10
20985;DHT22;10651;47.552;7.606;2022-08-01T16:02:19;30.40;89.20
20985;DHT22;10651;47.552;7.606;2022-08-01T16:04:44;30.40;89.10
20985;DHT22;10651;47.552;7.606;2022-08-01T16:07:10;30.20;88.50
20985;DHT22;10651;47.552;7.606;2022-08-01T16:09:37;30.10;88.40
20985;DHT22;10651;47.552;7.606;2022-08-01T16:12:03;30.10;88.70
20985;DHT22;10651;47.552;7.606;2022-08-01T16:14:28;30.00;88.80
20985;DHT22;10651;47.552;7.606;2022-08-01T16:16:54;29.90;89.20
20985;DHT22;10651;47.552;7.606;2022-08-01T16:19:19;29.90;88.50
20985;DHT22;10651;47.552;7.606;2022-08-01T16:21:46;29.70;89.20
20985;DHT22;10651;47.552;7.606;2022-08-01T16:24:11;29.70;90.00
20985;DHT22;10651;47.552;7.606;2022-08-01T16:26:37;29.60;89.80
20985;DHT22;10651;47.552;7.606;2022-08-01T16:29:03;29.70;90.30
20985;DHT22;10651;47.552;7.606;2022-08-01T16:31:28;29.50;90.20
20985;DHT22;10651;47.552;7.606;2022-08-01T16:33:54;29.50;90.40
20985;DHT22;10651;47.552;7.606;2022-08-01T16:36:20;29.50;90.00
20985;DHT22;10651;47.552;7.606;2022-08-01T16:38:46;29.50;90.00
20985;DHT22;10651;47.552;7.606;2022-08-01T16:41:12;29.40;90.10
20985;DHT22;10651;47.552;7.606;2022-08-01T16:43:38;29.40;90.60
20985;DHT22;10651;47.552;7.606;2022-08-01T16:46:05;29.30;91.00
20985;DHT22;10651;47.552;7.606;2022-08-01T16:48:31;29.20;91.00
20985;DHT22;10651;47.552;7.606;2022-08-01T16:50:58;29.10;91.30
20985;DHT22;10651;47.552;7.606;2022-08-01T16:53:23;29.10;91.30
20985;DHT22;10651;47.552;7.606;2022-08-01T16:55:50;29.20;91.20
20985;DHT22;10651;47.552;7.606;2022-08-01T16:58:17;29.20;91.90
20985;DHT22;10651;47.552;7.606;2022-08-01T17:00:44;29.20;91.90
20985;DHT22;10651;47.552;7.606;2022-08-01T17:03:17;29.10;91.30
20985;DHT22;10651;47.552;7.606;2022-08-01T17:05:43;29.00;91.00
20985;DHT22;10651;47.552;7.606;2022-08-01T17:08:09;28.90;90.70